Flight Track Log - Related Links

Times and Time Zones

All times are in EDT time to prevent confusion due to time zone crossing. See the SWA958 flight status page for this flight to view local times or setup timezone preferences in your user account.

Time Position Orientation Groundspeed Altitude Reporting Facility
EDT Latitude Longitude Course Direction KTS MPH feet Rate Location/Type
Sat 10:32:10 PM 39.8167 -104.7333 270° West 229 264 8,400  Level Denver TRACON
Sat 10:33:07 PM 39.8136 -104.8172 267° West 248 285 11,100 2,797 Climbing Denver Center
Sat 10:34:08 PM 39.8197 -104.9181 275° West 279 321 13,900 2,705 Climbing Denver Center
Sat 10:35:09 PM 39.8256 -105.0322 274° West 319 367 16,600 2,705 Climbing Denver Center
Sat 10:36:10 PM 39.8308 -105.1558 273° West 342 394 19,400 3,049 Climbing Denver Center
Sat 10:37:00 PM 39.8500 -105.7623 270° West  Level FlightAware Approximate
Sat 10:37:11 PM 39.8381 -105.2975 274° West 354 407 22,800  Level Denver Center
Sat 10:38:11 PM 39.8436 -105.4114 274° West 359 413 24,900 2,182 Climbing Denver Center
Sat 10:39:12 PM 39.8508 -105.5506 274° West 388 447 27,200 2,459 Climbing Denver Center
Sat 10:40:13 PM 39.8583 -105.6886 274° West 376 433 29,900 2,410 Climbing Denver Center
Sat 10:41:14 PM 39.8497 -105.8233 265° West 371 427 32,100 1,884 Climbing Denver Center
Sat 10:42:14 PM 39.8378 -105.9592 264° West 375 432 33,700 1,537 Climbing Denver Center
Sat 10:43:15 PM 39.8275 -106.0975 265° West 382 440 35,200 1,426 Climbing Denver Center
Sat 10:44:16 PM 39.8147 -106.2375 263° West 386 444 36,600 1,180 Climbing Denver Center
Sat 10:45:17 PM 39.8006 -106.3783 263° West 390 449 37,600 694 Climbing Denver Center
Sat 10:46:17 PM 39.7883 -106.5356 264° West 395 455 38,000 198 Climbing Denver Center
Sat 10:47:18 PM 39.7786 -106.6800 265° West 403 464 38,000  Level Denver Center
Sat 10:48:19 PM 39.7697 -106.8225 265° West 400 460 38,000  Level Denver Center
Sat 10:49:20 PM 39.7597 -106.9644 265° West 399 459 38,000  Level Denver Center
Sat 10:50:20 PM 39.7497 -107.1053 265° West 396 456 38,000  Level Denver Center
Sat 10:51:21 PM 39.7400 -107.2564 265° West 392 451 38,000  Level Denver Center
Sat 10:52:22 PM 39.7300 -107.3897 264° West 390 449 38,000  Level Denver Center
Sat 10:53:23 PM 39.7181 -107.5456 264° West 388 447 38,000  Level Denver Center
Sat 10:54:23 PM 39.7083 -107.6775 265° West 385 443 38,000  Level Denver Center
Sat 10:55:24 PM 39.6986 -107.8083 265° West 382 440 38,000  Level Denver Center
Sat 10:56:25 PM 39.6861 -107.9614 264° West 382 440 38,000  Level Denver Center
Sat 10:57:26 PM 39.6764 -108.0911 264° West 378 435 38,000  Level Denver Center
Sat 10:58:26 PM 39.6653 -108.2222 264° West 381 438 38,000  Level Denver Center
Sat 10:59:27 PM 39.6539 -108.3756 265° West 383 441 38,000  Level Denver Center
Sat 11:00:28 PM 39.6439 -108.5047 264° West 374 430 38,000  Level Denver Center
Sat 11:01:29 PM 39.6333 -108.6356 264° West 380 437 38,000  Level Denver Center
Sat 11:02:29 PM 39.6186 -108.7944 263° West 390 449 38,000  Level Denver Center
Sat 11:03:30 PM 39.6092 -108.9117 264° West 388 447 38,000  Level Denver Center
Sat 11:04:30 PM 39.5961 -109.0664 264° West 389 448 38,000  Level Denver Center
Sat 11:05:31 PM 39.5847 -109.1989 264° West 388 447 38,000  Level Denver Center
Sat 11:06:32 PM 39.5722 -109.3317 263° West 389 448 38,000  Level Denver Center
Sat 11:07:27 PM 39.5606 -109.4653 264° West 388 447 38,000  Level Salt Lake Center
Sat 11:08:28 PM 39.5478 -109.6192 264° West 387 445 38,000  Level Salt Lake Center
Sat 11:09:28 PM 39.5347 -109.7511 263° West 387 445 38,000  Level Salt Lake Center
Sat 11:10:29 PM 39.5228 -109.8839 263° West 385 443 38,000  Level Salt Lake Center
Sat 11:11:29 PM 39.5103 -110.0161 263° West 387 445 38,000  Level Salt Lake Center
Sat 11:12:30 PM 39.4897 -110.1672 260° West 383 441 38,000  Level Salt Lake Center
Sat 11:13:31 PM 39.4722 -110.2978 260° West 385 443 38,000  Level Salt Lake Center
Sat 11:14:31 PM 39.4542 -110.4275 260° West 385 443 38,000  Level Salt Lake Center
Sat 11:15:32 PM 39.4353 -110.5792 261° West 382 440 38,000  Level Salt Lake Center
Sat 11:16:33 PM 39.4181 -110.7114 260° West 387 445 38,000  Level Salt Lake Center
Sat 11:17:33 PM 39.3986 -110.8431 259° West 390 449 38,000  Level Salt Lake Center
Sat 11:18:34 PM 39.3781 -110.9978 260° West 392 451 38,000  Level Salt Lake Center
Sat 11:19:35 PM 39.3586 -111.1303 259° West 393 452 38,000  Level Salt Lake Center
Sat 11:20:36 PM 39.3394 -111.2636 260° West 395 455 38,000  Level Salt Lake Center
Sat 11:21:36 PM 39.3211 -111.4031 260° West 394 453 38,000  Level Salt Lake Center
Sat 11:22:37 PM 39.3014 -111.5414 260° West 392 451 38,000  Level Salt Lake Center
Sat 11:23:38 PM 39.2814 -111.6792 259° West 390 449 38,000  Level Salt Lake Center
Sat 11:24:38 PM 39.2614 -111.8169 259° West 391 450 38,000  Level Salt Lake Center
Sat 11:25:39 PM 39.2406 -111.9547 259° West 391 450 38,000  Level Salt Lake Center
Sat 11:26:40 PM 39.2172 -112.1069 259° West 391 450 38,000  Level Salt Lake Center
Sat 11:27:41 PM 39.1964 -112.2458 259° West 394 453 38,000  Level Salt Lake Center
Sat 11:28:41 PM 39.1761 -112.3839 259° West 394 453 38,000  Level Salt Lake Center
Sat 11:29:42 PM 39.1544 -112.5225 259° West 396 456 38,000  Level Salt Lake Center
Sat 11:30:43 PM 39.1331 -112.6608 259° West 395 455 38,000  Level Salt Lake Center
Sat 11:31:43 PM 39.1122 -112.8006 259° West 399 459 38,000  Level Salt Lake Center
Sat 11:32:44 PM 39.0903 -112.9397 259° West 398 458 38,000  Level Salt Lake Center
Sat 11:33:44 PM 39.0675 -113.0778 258° West 397 457 38,000  Level Salt Lake Center
Sat 11:34:45 PM 39.0419 -113.2433 259° West 395 455 38,000  Level Salt Lake Center
Sat 11:35:46 PM 39.0203 -113.3814 259° West 397 457 38,000  Level Salt Lake Center
Sat 11:36:46 PM 38.9983 -113.5206 259° West 399 459 38,000  Level Salt Lake Center
Sat 11:37:47 PM 38.9758 -113.6600 258° West 400 460 38,000  Level Salt Lake Center
Sat 11:38:48 PM 38.9533 -113.7997 258° West 400 460 38,000  Level Salt Lake Center
Sat 11:39:48 PM 38.9300 -113.9408 258° West 404 465 38,000  Level Salt Lake Center
Sat 11:40:49 PM 38.9072 -114.0819 258° West 406 467 38,000  Level Salt Lake Center
Sat 11:41:50 PM 38.8825 -114.2242 257° West 408 470 38,000  Level Salt Lake Center
Sat 11:42:50 PM 38.8600 -114.3669 259° West 410 472 38,000  Level Salt Lake Center
Sat 11:43:51 PM 38.8356 -114.5119 258° West 416 479 38,000  Level Salt Lake Center
Sat 11:44:52 PM 38.8106 -114.6578 258° West 420 483 38,000  Level Salt Lake Center
Sat 11:45:52 PM 38.7847 -114.8050 257° West 424 488 38,000  Level Salt Lake Center
Sat 11:46:53 PM 38.7589 -114.9547 258° West 430 495 38,000  Level Salt Lake Center
Sat 11:47:54 PM 38.7308 -115.1042 257° West 434 499 38,000  Level Salt Lake Center
Sat 11:48:54 PM 38.7033 -115.2536 257° West 435 501 38,000  Level Salt Lake Center
Sat 11:49:55 PM 38.6739 -115.4278 258° West 428 493 38,000  Level Salt Lake Center
Sat 11:50:55 PM 38.6469 -115.5769 257° West 431 496 38,000  Level Salt Lake Center
Sat 11:51:56 PM 38.6206 -115.7247 257° West 429 494 38,000  Level Salt Lake Center
Sat 11:52:57 PM 38.5936 -115.8714 257° West 424 488 38,000  Level Salt Lake Center
Sat 11:53:57 PM 38.5672 -116.0192 257° West 426 490 38,000  Level Salt Lake Center
Sat 11:54:58 PM 38.5406 -116.1664 257° West 426 490 38,000  Level Salt Lake Center
Sat 11:55:18 PM 38.5350 -116.1961 257° West 429 494 38,000  Level Oakland Center
Sat 11:56:18 PM 38.5067 -116.3425 256° West 427 491 38,000  Level Oakland Center
Sat 11:56:59 PM 38.4858 -116.4594 257° West 423 487 38,000  Level Salt Lake Center
Sat 11:58:00 PM 38.4575 -116.6050 256° West 424 488 38,000  Level Salt Lake Center
Sat 11:58:20 PM 38.4469 -116.6636 257° West 424 488 38,000  Level Oakland Center
Sat 11:59:20 PM 38.4189 -116.8103 256° West 426 490 38,000  Level Oakland Center
Sun 12:00:21 AM 38.3911 -116.9556 256° West 426 490 38,000  Level Oakland Center
Sun 12:01:01 AM 38.3739 -117.0417 256° West 424 488 38,000  Level Salt Lake Center
Sun 12:02:02 AM 38.3464 -117.1839 256° West 422 486 38,000  Level Salt Lake Center
Sun 12:02:22 AM 38.3353 -117.2442 257° West 420 483 38,000  Level Oakland Center
Sun 12:03:23 AM 38.3147 -117.3900 260° West 419 482 38,000  Level Oakland Center
Sun 12:04:23 AM 38.2981 -117.5308 261° West 423 487 38,000  Level Oakland Center
Sun 12:05:24 AM 38.2789 -117.6767 261° West 421 484 38,000  Level Oakland Center
Sun 12:06:24 AM 38.2606 -117.8244 261° West 425 489 38,000  Level Oakland Center
Sun 12:07:25 AM 38.2419 -117.9706 261° West 422 486 38,000  Level Oakland Center
Sun 12:08:26 AM 38.2217 -118.1292 261° West 424 488 38,000  Level Oakland Center
Sun 12:09:26 AM 38.2014 -118.2792 260° West 429 494 38,000  Level Oakland Center
Sun 12:10:27 AM 38.1825 -118.4269 261° West 424 488 38,000  Level Oakland Center
Sun 12:11:28 AM 38.1631 -118.5764 261° West 427 491 38,000  Level Oakland Center
Sun 12:12:28 AM 38.1439 -118.7250 261° West 427 491 38,000  Level Oakland Center
Sun 12:13:29 AM 38.1219 -118.8892 260° West 424 488 38,000  Level Oakland Center
Sun 12:14:29 AM 38.1025 -119.0364 261° West 423 487 38,000  Level Oakland Center
Sun 12:15:30 AM 38.0825 -119.1656 259° West 423 487 38,000  Level Oakland Center
Sun 12:16:31 AM 38.0628 -119.3122 260° West 421 484 38,000  Level Oakland Center
Sun 12:17:31 AM 38.0425 -119.4578 260° West 421 484 38,000 -99 Level Oakland Center
Sun 12:18:32 AM 38.0247 -119.6033 261° West 420 483 37,800 -942 Descending Oakland Center
Sun 12:19:32 AM 38.0014 -119.7494 259° West 421 484 36,100 -1,884 Descending Oakland Center
Sun 12:20:33 AM 37.9817 -119.8911 260° West 409 471 34,000 -2,066 Descending Oakland Center
Sun 12:21:34 AM 37.9608 -120.0269 259° West 395 455 31,900 -2,033 Descending Oakland Center
Sun 12:22:34 AM 37.9411 -120.1594 259° West 384 442 29,900 -1,983 Descending Oakland Center
Sun 12:23:35 AM 37.9211 -120.2883 259° West 379 436 27,900 -2,066 Descending Oakland Center
Sun 12:24:36 AM 37.8994 -120.4331 259° West 360 414 25,700 -1,983 Descending Oakland Center
Sun 12:25:36 AM 37.8839 -120.5458 260° West 340 391 23,900 -1,785 Descending Oakland Center
Sun 12:26:37 AM 37.8672 -120.6589 259° West 329 379 22,100 -1,785 Descending Oakland Center
Sun 12:27:37 AM 37.8592 -120.7792 265° West 341 392 20,300 -1,840 Descending Oakland Center
Sun 12:27:52 AM 37.8500 -120.8167 253° West 342 394 19,800 -2,080 Descending Northern Cal TRACON
Sun 12:28:52 AM 37.8500 -120.9333 270° West 342 394 17,700 -1,947 Descending Northern Cal TRACON
Sun 12:29:46 AM 37.8500 -121.0333 270° West 336 387 16,100 -1,700 Descending Northern Cal TRACON
Sun 12:30:52 AM 37.8333 -121.1667 261° West 335 386 14,300 -1,571 Descending Northern Cal TRACON
Sun 12:31:52 AM 37.8000 -121.2667 247° West 338 389 12,800 -1,450 Descending Northern Cal TRACON
Sun 12:32:52 AM 37.7667 -121.3500 243° Southwest 285 328 11,400 -1,350 Descending Northern Cal TRACON
Sun 12:33:52 AM 37.7333 -121.4500 247° West 275 316 10,100 -1,200 Descending Northern Cal TRACON
Sun 12:34:52 AM 37.7000 -121.5333 243° Southwest 276 318 9,000 -1,000 Descending Northern Cal TRACON
Sun 12:35:52 AM 37.6667 -121.6167 243° Southwest 282 325 8,100 -950 Descending Northern Cal TRACON
Sun 12:36:52 AM 37.6333 -121.7167 247° West 282 325 7,100 -1,000 Descending Northern Cal TRACON
Sun 12:37:52 AM 37.6333 -121.8167 270° West 283 326 6,100 -1,000 Descending Northern Cal TRACON
Sun 12:38:46 AM 37.6333 -121.9000 270° West 265 305 5,200 -789 Descending Northern Cal TRACON
Sun 12:39:46 AM 37.6167 -121.9833 256° West 225 259 4,600 -1,050 Descending Northern Cal TRACON
Sun 12:40:46 AM 37.6167 -122.0500 270° West 195 224 3,100 -1,250 Descending Northern Cal TRACON
Sun 12:41:46 AM 37.6333 -122.1000 293° West 169 194 2,100 -843 Descending Northern Cal TRACON
Sun 12:42:47 AM 37.6531 -122.1422 301° West 169 194 1,400 -744 Descending Oakland Center
Sun 12:43:47 AM 37.6781 -122.1797 310° West 151 174 600 -800 Descending Oakland Center
Sun 12:46:00 AM 37.7167 -122.2167 270° West  Level FlightAware Approximate
Sun 12:53:00 AM 37.7213 -122.2207 270° West  Level Estimated

Login

Don't have an account? Register now (free) for customized features, flight alerts, and more!